Golden Meadow, LA (70357)

8:50 PM CDT en Octubre 25, 2014 (GMT -0500)
Port Fourchon Terminal | Change Station
CLOSE
Current Station
Aeropuerto
Location: Port Fourchon Terminal,
Altura: 7 ft
Estaciones meteorológicas cercanas

Alt 7 ft 29.12 °N, 90.20 °W | Updated 15 minutes ago

Despejado
Despejado
72 ° F
Sensación térmica 72 ° F
N
0
Viento Variable Viento desde Norte

Hoy
Alta -- | Baja -- ° F
--% Posibilidad de precipitaciones
Ayer
Alta -- | Baja -- ° F
Precip. -- pul
7:09 AM 6:20 PM
Creciente, 5% visible
Presión 30.13 pul
Visibilidad 10.0 Millas
Nubes Despejado
Punto de rocío 59 ° F
Humedad 64%
Precipitaciones 0.00 pul
Espesor de la nieve No disponible.
UV 0 de una escala de 12
Polen 3.20 de una escala de 12
Calidad del aire No disponible.
Flu Activity Sporadic
METAR KXPY 260135Z AUTO 00000KT 10SM CLR 22/15 A3013 RMK A01

More Conditions Fewer Conditions

Presión 30.13 pul
Visibilidad 10.0 Millas
Nubes Despejado
Punto de rocío 59 ° F
Humedad 64%
Precipitaciones 0.00 pul
Espesor de la nieve No disponible.
UV 0 de una escala de 12
Polen 3.20 de una escala de 12
Calidad del aire No disponible.
Flu Activity Sporadic
METAR KXPY 260135Z AUTO 00000KT 10SM CLR 22/15 A3013 RMK A01

More Conditions Fewer Conditions

10-Day Weather Forecast

Almanac

Astronomía

Oct. 25, 2014 Salida Puesta
Hora real 7:09 AM CDT 6:20 PM CDT
Crepúsculo civil 6:44 AM CDT 6:44 PM CDT
Crepúsculo náutico 6:16 AM CDT 7:12 PM CDT
Crepúsculo astronómico 5:49 AM CDT 7:40 PM CDT
Luna 8:42 AM CDT (10/25) 7:50 PM CDT (10/25)
Horas de luz 12h 00m
Horas de luz
11h 11m
Tomorrow will be 1m 36s shorter.
Creciente, 5% of the Moon is Illuminated
Hoy
Creciente
Oct 30
Cuarto creciente
Nov 6
Luna llena
Nov 14
Cuarto menguante
Nov 22
Nueva

Extremos de hoy

Máximos del estado Bajos del estado

Community

WunderPhotos

Upload Photos

1,765,071 ¡fotos cargadas!

Nearby

Grosos de nieve

Estación Profundido Altura
No tenemos constancia de nieve nueva.

Actividad de terremotos

Ciudad Distance Mag. Tiempo y dato
No hay informes recientes de la actividad sísmica.
Magnitud mínima muestra es 2,5.

Temperaturas de aguas costeras

Lugar Temperatura
Amerada Pass, LA 71.1 ° F

Estaciones meteorológicas cercanas